sensor_id;sensor_type;location;lat;lon;timestamp;noise_LAeq;noise_LA_min;noise_LA_max;noise_LA01;noise_LA95
67302;Laerm;57659;51.436;5.978;2024-02-28T00:00:08;32.69;28.12;41.05;;
67302;Laerm;57659;51.436;5.978;2024-02-28T00:00:20;32.01;28.33;40.47;;
67302;Laerm;57659;51.436;5.978;2024-02-28T00:00:31;32.39;28.66;41.06;;
67302;Laerm;57659;51.436;5.978;2024-02-28T00:00:41;32.31;28.50;40.95;;
67302;Laerm;57659;51.436;5.978;2024-02-28T00:00:51;32.36;28.36;41.15;;
67302;Laerm;57659;51.436;5.978;2024-02-28T00:01:03;32.10;28.66;40.79;;
67302;Laerm;57659;51.436;5.978;2024-02-28T00:01:13;32.38;28.64;41.03;;
67302;Laerm;57659;51.436;5.978;2024-02-28T00:01:23;32.64;28.51;41.54;;
67302;Laerm;57659;51.436;5.978;2024-02-28T00:01:33;32.41;28.66;40.64;;
67302;Laerm;57659;51.436;5.978;2024-02-28T00:01:50;32.46;28.60;40.47;;
67302;Laerm;57659;51.436;5.978;2024-02-28T00:02:01;41.86;30.08;49.01;;
67302;Laerm;57659;51.436;5.978;2024-02-28T00:02:11;46.33;37.16;53.83;;
67302;Laerm;57659;51.436;5.978;2024-02-28T00:02:21;37.68;29.18;45.13;;
67302;Laerm;57659;51.436;5.978;2024-02-28T00:02:31;32.55;28.92;41.54;;
67302;Laerm;57659;51.436;5.978;2024-02-28T00:02:42;32.52;28.51;40.51;;
67302;Laerm;57659;51.436;5.978;2024-02-28T00:02:52;32.61;28.60;40.55;;
67302;Laerm;57659;51.436;5.978;2024-02-28T00:03:02;32.21;28.68;39.89;;
67302;Laerm;57659;51.436;5.978;2024-02-28T00:03:13;32.46;28.30;40.98;;
67302;Laerm;57659;51.436;5.978;2024-02-28T00:03:23;32.53;28.40;41.15;;
67302;Laerm;57659;51.436;5.978;2024-02-28T00:03:35;32.62;28.41;41.24;;
67302;Laerm;57659;51.436;5.978;2024-02-28T00:03:45;32.57;28.35;40.96;;
67302;Laerm;57659;51.436;5.978;2024-02-28T00:03:56;32.61;28.66;41.30;;
67302;Laerm;57659;51.436;5.978;2024-02-28T00:04:07;32.63;28.36;41.46;;
67302;Laerm;57659;51.436;5.978;2024-02-28T00:04:17;32.66;28.37;41.75;;
67302;Laerm;57659;51.436;5.978;2024-02-28T00:04:28;32.57;28.42;41.41;;
67302;Laerm;57659;51.436;5.978;2024-02-28T00:04:39;32.68;28.67;41.43;;
67302;Laerm;57659;51.436;5.978;2024-02-28T00:04:50;32.61;28.30;41.66;;
67302;Laerm;57659;51.436;5.978;2024-02-28T00:05:00;32.50;28.47;41.32;;
67302;Laerm;57659;51.436;5.978;2024-02-28T00:05:10;32.47;28.71;41.36;;
67302;Laerm;57659;51.436;5.978;2024-02-28T00:05:21;34.46;28.47;41.83;;
67302;Laerm;57659;51.436;5.978;2024-02-28T00:05:31;32.60;28.63;41.25;;
67302;Laerm;57659;51.436;5.978;2024-02-28T00:05:42;32.12;28.75;40.23;;
67302;Laerm;57659;51.436;5.978;2024-02-28T00:05:52;32.42;28.44;41.44;;
67302;Laerm;57659;51.436;5.978;2024-02-28T00:06:02;32.47;28.69;41.79;;
67302;Laerm;57659;51.436;5.978;2024-02-28T00:06:15;32.66;28.35;40.44;;
67302;Laerm;57659;51.436;5.978;2024-02-28T00:06:26;32.19;28.45;40.86;;
67302;Laerm;57659;51.436;5.978;2024-02-28T00:06:36;32.59;28.52;41.68;;
67302;Laerm;57659;51.436;5.978;2024-02-28T00:06:46;32.61;28.36;40.61;;
67302;Laerm;57659;51.436;5.978;2024-02-28T00:06:57;32.78;28.11;40.54;;
67302;Laerm;57659;51.436;5.978;2024-02-28T00:07:08;32.24;28.42;39.87;;
67302;Laerm;57659;51.436;5.978;2024-02-28T00:07:18;32.38;28.28;40.27;;
67302;Laerm;57659;51.436;5.978;2024-02-28T00:07:29;32.58;28.53;40.39;;
67302;Laerm;57659;51.436;5.978;2024-02-28T00:07:40;32.57;28.64;40.41;;
67302;Laerm;57659;51.436;5.978;2024-02-28T00:07:50;32.30;28.55;39.89;;
67302;Laerm;57659;51.436;5.978;2024-02-28T00:08:03;32.07;28.43;40.08;;
67302;Laerm;57659;51.436;5.978;2024-02-28T00:08:13;32.44;28.40;40.51;;
67302;Laerm;57659;51.436;5.978;2024-02-28T00:08:23;32.29;28.21;40.78;;
67302;Laerm;57659;51.436;5.978;2024-02-28T00:08:34;32.32;28.43;40.48;;
67302;Laerm;57659;51.436;5.978;2024-02-28T00:08:44;32.34;28.54;41.01;;
67302;Laerm;57659;51.436;5.978;2024-02-28T00:08:55;32.50;28.51;41.24;;
67302;Laerm;57659;51.436;5.978;2024-02-28T00:09:05;32.40;28.66;41.13;;
67302;Laerm;57659;51.436;5.978;2024-02-28T00:09:16;32.14;28.24;40.70;;
67302;Laerm;57659;51.436;5.978;2024-02-28T00:09:26;32.32;28.35;40.99;;
67302;Laerm;57659;51.436;5.978;2024-02-28T00:09:36;32.33;28.50;41.11;;
67302;Laerm;57659;51.436;5.978;2024-02-28T00:09:47;32.53;28.65;41.67;;
67302;Laerm;57659;51.436;5.978;2024-02-28T00:09:57;32.27;28.61;40.58;;
67302;Laerm;57659;51.436;5.978;2024-02-28T00:10:08;32.44;28.44;41.09;;
67302;Laerm;57659;51.436;5.978;2024-02-28T00:10:18;32.43;28.24;40.96;;
67302;Laerm;57659;51.436;5.978;2024-02-28T00:10:28;32.30;28.40;40.87;;
67302;Laerm;57659;51.436;5.978;2024-02-28T00:10:39;32.28;28.53;41.00;;
67302;Laerm;57659;51.436;5.978;2024-02-28T00:10:49;32.28;28.42;40.86;;
67302;Laerm;57659;51.436;5.978;2024-02-28T00:10:59;32.44;28.25;41.25;;
67302;Laerm;57659;51.436;5.978;2024-02-28T00:11:09;32.12;28.52;40.88;;
67302;Laerm;57659;51.436;5.978;2024-02-28T00:11:20;32.29;28.48;41.35;;
67302;Laerm;57659;51.436;5.978;2024-02-28T00:11:30;32.24;28.39;40.89;;
67302;Laerm;57659;51.436;5.978;2024-02-28T00:11:45;32.15;28.47;39.46;;
67302;Laerm;57659;51.436;5.978;2024-02-28T00:11:56;31.87;28.35;40.08;;
67302;Laerm;57659;51.436;5.978;2024-02-28T00:12:06;32.40;28.62;41.29;;
67302;Laerm;57659;51.436;5.978;2024-02-28T00:12:16;32.26;28.57;40.52;;
67302;Laerm;57659;51.436;5.978;2024-02-28T00:12:27;32.53;28.62;40.15;;
67302;Laerm;57659;51.436;5.978;2024-02-28T00:12:38;32.19;28.59;39.85;;
67302;Laerm;57659;51.436;5.978;2024-02-28T00:12:48;32.49;28.39;40.59;;
67302;Laerm;57659;51.436;5.978;2024-02-28T00:12:59;32.52;28.64;40.55;;
67302;Laerm;57659;51.436;5.978;2024-02-28T00:13:09;32.67;28.86;40.64;;
67302;Laerm;57659;51.436;5.978;2024-02-28T00:13:20;32.30;28.80;39.64;;
67302;Laerm;57659;51.436;5.978;2024-02-28T00:13:32;32.50;28.47;40.30;;
67302;Laerm;57659;51.436;5.978;2024-02-28T00:13:44;40.46;29.03;48.80;;
67302;Laerm;57659;51.436;5.978;2024-02-28T00:13:54;46.12;40.91;50.15;;
67302;Laerm;57659;51.436;5.978;2024-02-28T00:14:04;37.17;28.70;48.30;;
67302;Laerm;57659;51.436;5.978;2024-02-28T00:14:15;32.29;28.87;39.76;;
67302;Laerm;57659;51.436;5.978;2024-02-28T00:14:26;32.36;28.28;40.60;;
67302;Laerm;57659;51.436;5.978;2024-02-28T00:14:36;32.22;28.32;40.16;;
67302;Laerm;57659;51.436;5.978;2024-02-28T00:14:46;32.25;28.47;40.43;;
67302;Laerm;57659;51.436;5.978;2024-02-28T00:14:56;32.32;28.79;40.84;;
67302;Laerm;57659;51.436;5.978;2024-02-28T00:15:07;32.37;28.70;41.02;;
67302;Laerm;57659;51.436;5.978;2024-02-28T00:15:20;32.09;28.56;40.84;;
67302;Laerm;57659;51.436;5.978;2024-02-28T00:15:31;32.30;28.38;40.65;;
67302;Laerm;57659;51.436;5.978;2024-02-28T00:15:41;32.33;28.36;40.78;;
67302;Laerm;57659;51.436;5.978;2024-02-28T00:15:52;32.57;28.37;41.37;;
67302;Laerm;57659;51.436;5.978;2024-02-28T00:16:02;32.23;28.73;40.53;;
67302;Laerm;57659;51.436;5.978;2024-02-28T00:16:13;32.41;28.52;40.91;;
67302;Laerm;57659;51.436;5.978;2024-02-28T00:16:23;32.59;28.83;40.82;;
67302;Laerm;57659;51.436;5.978;2024-02-28T00:16:33;32.64;29.06;41.17;;
67302;Laerm;57659;51.436;5.978;2024-02-28T00:16:44;32.46;28.90;41.15;;
67302;Laerm;57659;51.436;5.978;2024-02-28T00:16:54;47.06;29.16;55.84;;
67302;Laerm;57659;51.436;5.978;2024-02-28T00:17:05;48.93;32.12;54.66;;
67302;Laerm;57659;51.436;5.978;2024-02-28T00:17:15;33.36;30.00;40.49;;
67302;Laerm;57659;51.436;5.978;2024-02-28T00:17:25;32.78;29.01;40.71;;
67302;Laerm;57659;51.436;5.978;2024-02-28T00:17:39;32.32;28.60;40.97;;
67302;Laerm;57659;51.436;5.978;2024-02-28T00:17:53;32.17;28.37;40.14;;
67302;Laerm;57659;51.436;5.978;2024-02-28T00:18:04;31.84;28.32;39.16;;
67302;Laerm;57659;51.436;5.978;2024-02-28T00:18:14;32.34;28.33;41.13;;
67302;Laerm;57659;51.436;5.978;2024-02-28T00:18:24;32.05;28.54;40.08;;
67302;Laerm;57659;51.436;5.978;2024-02-28T00:18:35;32.01;28.32;39.32;;
67302;Laerm;57659;51.436;5.978;2024-02-28T00:18:46;31.62;28.53;38.86;;
67302;Laerm;57659;51.436;5.978;2024-02-28T00:18:56;31.86;28.61;39.76;;
67302;Laerm;57659;51.436;5.978;2024-02-28T00:19:06;32.02;28.60;39.37;;
67302;Laerm;57659;51.436;5.978;2024-02-28T00:19:17;31.96;28.49;39.96;;
67302;Laerm;57659;51.436;5.978;2024-02-28T00:19:28;31.74;28.40;38.35;;
67302;Laerm;57659;51.436;5.978;2024-02-28T00:19:38;32.05;28.64;39.76;;
67302;Laerm;57659;51.436;5.978;2024-02-28T00:19:48;32.04;28.59;39.96;;
67302;Laerm;57659;51.436;5.978;2024-02-28T00:19:59;31.99;28.58;39.85;;
67302;Laerm;57659;51.436;5.978;2024-02-28T00:20:09;31.61;28.44;38.59;;
67302;Laerm;57659;51.436;5.978;2024-02-28T00:20:20;31.54;28.39;38.69;;
67302;Laerm;57659;51.436;5.978;2024-02-28T00:20:30;31.85;28.63;39.99;;
67302;Laerm;57659;51.436;5.978;2024-02-28T00:20:43;31.78;28.35;39.47;;
67302;Laerm;57659;51.436;5.978;2024-02-28T00:20:53;31.75;28.47;39.44;;
67302;Laerm;57659;51.436;5.978;2024-02-28T00:21:04;31.90;28.60;40.00;;
67302;Laerm;57659;51.436;5.978;2024-02-28T00:21:14;32.03;28.28;40.29;;
67302;Laerm;57659;51.436;5.978;2024-02-28T00:21:25;31.90;28.28;40.09;;
67302;Laerm;57659;51.436;5.978;2024-02-28T00:21:35;31.66;28.49;39.39;;
67302;Laerm;57659;51.436;5.978;2024-02-28T00:21:45;31.97;28.57;40.31;;
67302;Laerm;57659;51.436;5.978;2024-02-28T00:21:55;32.04;28.66;40.48;;
67302;Laerm;57659;51.436;5.978;2024-02-28T00:22:06;32.07;28.61;40.15;;
67302;Laerm;57659;51.436;5.978;2024-02-28T00:22:16;31.84;28.36;40.64;;
67302;Laerm;57659;51.436;5.978;2024-02-28T00:22:26;32.05;28.47;40.18;;
67302;Laerm;57659;51.436;5.978;2024-02-28T00:22:36;32.10;28.45;39.55;;
67302;Laerm;57659;51.436;5.978;2024-02-28T00:22:47;31.98;28.57;39.16;;
67302;Laerm;57659;51.436;5.978;2024-02-28T00:22:57;31.79;28.27;40.00;;
67302;Laerm;57659;51.436;5.978;2024-02-28T00:23:07;31.82;28.54;39.04;;
67302;Laerm;57659;51.436;5.978;2024-02-28T00:23:17;31.86;28.36;39.22;;
67302;Laerm;57659;51.436;5.978;2024-02-28T00:23:28;31.68;28.62;39.03;;
67302;Laerm;57659;51.436;5.978;2024-02-28T00:23:38;31.60;28.34;38.91;;
67302;Laerm;57659;51.436;5.978;2024-02-28T00:23:48;31.68;28.51;39.25;;
67302;Laerm;57659;51.436;5.978;2024-02-28T00:23:59;31.70;28.47;39.16;;
67302;Laerm;57659;51.436;5.978;2024-02-28T00:24:09;31.32;28.24;38.68;;
67302;Laerm;57659;51.436;5.978;2024-02-28T00:24:20;31.65;28.03;39.52;;
67302;Laerm;57659;51.436;5.978;2024-02-28T00:24:30;31.92;28.71;39.95;;
67302;Laerm;57659;51.436;5.978;2024-02-28T00:24:41;31.98;28.48;39.93;;
67302;Laerm;57659;51.436;5.978;2024-02-28T00:24:51;31.67;28.63;39.81;;
67302;Laerm;57659;51.436;5.978;2024-02-28T00:25:01;31.75;28.46;40.36;;
67302;Laerm;57659;51.436;5.978;2024-02-28T00:25:12;31.81;28.35;40.06;;
67302;Laerm;57659;51.436;5.978;2024-02-28T00:25:23;33.00;28.54;46.96;;
67302;Laerm;57659;51.436;5.978;2024-02-28T00:25:34;31.77;28.35;40.25;;
67302;Laerm;57659;51.436;5.978;2024-02-28T00:25:45;31.97;28.59;40.60;;
67302;Laerm;57659;51.436;5.978;2024-02-28T00:25:55;32.80;28.76;42.63;;
67302;Laerm;57659;51.436;5.978;2024-02-28T00:26:05;32.01;28.69;39.24;;
67302;Laerm;57659;51.436;5.978;2024-02-28T00:26:15;31.55;28.59;37.61;;
67302;Laerm;57659;51.436;5.978;2024-02-28T00:26:26;31.50;28.60;38.05;;
67302;Laerm;57659;51.436;5.978;2024-02-28T00:26:39;31.64;28.49;38.26;;
67302;Laerm;57659;51.436;5.978;2024-02-28T00:26:50;31.86;28.70;38.99;;
67302;Laerm;57659;51.436;5.978;2024-02-28T00:27:00;32.02;28.60;39.25;;
67302;Laerm;57659;51.436;5.978;2024-02-28T00:27:11;32.12;28.76;39.71;;
67302;Laerm;57659;51.436;5.978;2024-02-28T00:27:21;32.13;28.80;40.18;;
67302;Laerm;57659;51.436;5.978;2024-02-28T00:27:32;32.94;29.04;40.37;;
67302;Laerm;57659;51.436;5.978;2024-02-28T00:27:43;45.55;33.30;52.45;;
67302;Laerm;57659;51.436;5.978;2024-02-28T00:27:53;44.47;40.62;47.81;;
67302;Laerm;57659;51.436;5.978;2024-02-28T00:28:04;36.43;29.08;47.47;;
67302;Laerm;57659;51.436;5.978;2024-02-28T00:28:14;31.91;28.60;39.53;;
67302;Laerm;57659;51.436;5.978;2024-02-28T00:28:24;31.85;28.65;40.23;;
67302;Laerm;57659;51.436;5.978;2024-02-28T00:28:35;31.83;28.42;39.33;;
67302;Laerm;57659;51.436;5.978;2024-02-28T00:28:46;32.00;28.31;38.96;;
67302;Laerm;57659;51.436;5.978;2024-02-28T00:28:56;31.83;28.46;38.56;;
67302;Laerm;57659;51.436;5.978;2024-02-28T00:29:07;31.78;28.69;39.99;;
67302;Laerm;57659;51.436;5.978;2024-02-28T00:29:17;32.00;28.52;39.35;;
67302;Laerm;57659;51.436;5.978;2024-02-28T00:29:27;31.95;28.46;39.20;;
67302;Laerm;57659;51.436;5.978;2024-02-28T00:29:38;31.57;28.37;38.03;;
67302;Laerm;57659;51.436;5.978;2024-02-28T00:29:48;31.83;28.50;39.38;;
67302;Laerm;57659;51.436;5.978;2024-02-28T00:29:58;40.56;28.54;59.53;;
67302;Laerm;57659;51.436;5.978;2024-02-28T00:30:09;39.05;28.47;55.98;;
67302;Laerm;57659;51.436;5.978;2024-02-28T00:30:19;31.77;28.46;39.39;;
67302;Laerm;57659;51.436;5.978;2024-02-28T00:30:29;32.25;28.47;40.77;;
67302;Laerm;57659;51.436;5.978;2024-02-28T00:30:40;32.33;28.60;40.89;;
67302;Laerm;57659;51.436;5.978;2024-02-28T00:30:51;32.39;28.46;41.09;;
67302;Laerm;57659;51.436;5.978;2024-02-28T00:31:01;31.82;28.73;40.04;;
67302;Laerm;57659;51.436;5.978;2024-02-28T00:31:12;32.18;28.51;41.15;;
67302;Laerm;57659;51.436;5.978;2024-02-28T00:31:22;32.71;28.27;41.22;;
67302;Laerm;57659;51.436;5.978;2024-02-28T00:31:33;32.57;28.50;41.36;;
67302;Laerm;57659;51.436;5.978;2024-02-28T00:31:43;32.08;28.31;40.14;;
67302;Laerm;57659;51.436;5.978;2024-02-28T00:31:53;32.32;28.48;41.17;;
67302;Laerm;57659;51.436;5.978;2024-02-28T00:32:04;32.54;28.63;41.24;;
67302;Laerm;57659;51.436;5.978;2024-02-28T00:32:14;32.56;28.43;41.27;;
67302;Laerm;57659;51.436;5.978;2024-02-28T00:32:25;32.27;28.69;40.51;;
67302;Laerm;57659;51.436;5.978;2024-02-28T00:32:35;39.18;29.18;44.70;;
67302;Laerm;57659;51.436;5.978;2024-02-28T00:32:45;40.29;35.54;46.31;;
67302;Laerm;57659;51.436;5.978;2024-02-28T00:32:55;38.85;29.17;45.70;;
67302;Laerm;57659;51.436;5.978;2024-02-28T00:33:06;32.17;28.73;40.20;;
67302;Laerm;57659;51.436;5.978;2024-02-28T00:33:16;32.15;28.54;41.30;;
67302;Laerm;57659;51.436;5.978;2024-02-28T00:33:26;32.36;28.60;40.10;;
67302;Laerm;57659;51.436;5.978;2024-02-28T00:33:36;32.30;28.46;40.43;;
67302;Laerm;57659;51.436;5.978;2024-02-28T00:33:47;31.99;28.49;39.90;;
67302;Laerm;57659;51.436;5.978;2024-02-28T00:33:57;32.09;28.65;39.88;;
67302;Laerm;57659;51.436;5.978;2024-02-28T00:34:07;32.16;28.59;40.29;;
67302;Laerm;57659;51.436;5.978;2024-02-28T00:34:18;32.24;28.41;40.48;;
67302;Laerm;57659;51.436;5.978;2024-02-28T00:34:29;33.70;28.50;50.49;;
67302;Laerm;57659;51.436;5.978;2024-02-28T00:34:39;32.13;28.26;40.42;;
67302;Laerm;57659;51.436;5.978;2024-02-28T00:34:49;32.22;28.38;40.17;;
67302;Laerm;57659;51.436;5.978;2024-02-28T00:35:00;32.19;28.41;40.74;;
67302;Laerm;57659;51.436;5.978;2024-02-28T00:35:10;32.03;28.37;40.26;;
67302;Laerm;57659;51.436;5.978;2024-02-28T00:35:21;32.08;28.56;40.35;;
67302;Laerm;57659;51.436;5.978;2024-02-28T00:35:31;32.22;28.66;40.26;;
67302;Laerm;57659;51.436;5.978;2024-02-28T00:35:43;32.00;28.46;40.57;;
67302;Laerm;57659;51.436;5.978;2024-02-28T00:35:53;31.96;28.05;40.28;;
67302;Laerm;57659;51.436;5.978;2024-02-28T00:36:04;32.06;28.58;40.51;;
67302;Laerm;57659;51.436;5.978;2024-02-28T00:36:14;31.99;28.62;39.99;;
67302;Laerm;57659;51.436;5.978;2024-02-28T00:36:25;31.59;28.47;39.16;;
67302;Laerm;57659;51.436;5.978;2024-02-28T00:36:35;33.54;28.49;49.66;;
67302;Laerm;57659;51.436;5.978;2024-02-28T00:36:45;32.27;28.50;41.60;;
67302;Laerm;57659;51.436;5.978;2024-02-28T00:36:56;32.29;28.44;40.63;;
67302;Laerm;57659;51.436;5.978;2024-02-28T00:37:06;32.01;28.10;39.96;;
67302;Laerm;57659;51.436;5.978;2024-02-28T00:37:16;31.99;28.66;41.79;;
67302;Laerm;57659;51.436;5.978;2024-02-28T00:37:27;32.37;28.50;40.83;;
67302;Laerm;57659;51.436;5.978;2024-02-28T00:37:37;32.57;28.39;40.37;;
67302;Laerm;57659;51.436;5.978;2024-02-28T00:37:47;32.42;28.62;40.36;;
67302;Laerm;57659;51.436;5.978;2024-02-28T00:37:57;32.06;28.47;40.51;;
67302;Laerm;57659;51.436;5.978;2024-02-28T00:38:08;32.59;28.17;41.77;;
67302;Laerm;57659;51.436;5.978;2024-02-28T00:38:18;32.58;28.24;40.09;;
67302;Laerm;57659;51.436;5.978;2024-02-28T00:38:28;32.26;28.40;40.33;;
67302;Laerm;57659;51.436;5.978;2024-02-28T00:38:39;32.04;28.53;39.63;;
67302;Laerm;57659;51.436;5.978;2024-02-28T00:38:49;31.78;28.57;39.51;;
67302;Laerm;57659;51.436;5.978;2024-02-28T00:39:01;32.28;28.46;40.26;;
67302;Laerm;57659;51.436;5.978;2024-02-28T00:39:11;32.08;28.58;40.31;;
67302;Laerm;57659;51.436;5.978;2024-02-28T00:39:21;32.34;28.34;40.54;;
67302;Laerm;57659;51.436;5.978;2024-02-28T00:39:32;32.28;28.48;40.77;;
67302;Laerm;57659;51.436;5.978;2024-02-28T00:39:43;32.41;28.40;41.17;;
67302;Laerm;57659;51.436;5.978;2024-02-28T00:39:53;32.23;28.51;41.07;;
67302;Laerm;57659;51.436;5.978;2024-02-28T00:40:04;32.11;28.51;40.70;;
67302;Laerm;57659;51.436;5.978;2024-02-28T00:40:14;32.21;28.49;40.62;;
67302;Laerm;57659;51.436;5.978;2024-02-28T00:40:24;32.35;28.49;41.34;;
67302;Laerm;57659;51.436;5.978;2024-02-28T00:40:35;32.16;28.41;40.66;;
67302;Laerm;57659;51.436;5.978;2024-02-28T00:40:45;32.18;28.22;41.16;;
67302;Laerm;57659;51.436;5.978;2024-02-28T00:40:56;32.31;28.63;40.79;;
67302;Laerm;57659;51.436;5.978;2024-02-28T00:41:06;32.28;28.17;40.83;;
67302;Laerm;57659;51.436;5.978;2024-02-28T00:41:17;32.12;28.45;40.71;;
67302;Laerm;57659;51.436;5.978;2024-02-28T00:41:27;32.16;28.39;41.33;;
67302;Laerm;57659;51.436;5.978;2024-02-28T00:41:37;32.31;28.54;40.39;;
67302;Laerm;57659;51.436;5.978;2024-02-28T00:41:48;32.20;28.55;40.04;;
67302;Laerm;57659;51.436;5.978;2024-02-28T00:41:58;32.34;28.55;42.94;;
67302;Laerm;57659;51.436;5.978;2024-02-28T00:42:08;32.18;28.29;41.00;;
67302;Laerm;57659;51.436;5.978;2024-02-28T00:42:18;32.21;28.41;40.24;;
67302;Laerm;57659;51.436;5.978;2024-02-28T00:42:29;31.93;28.52;39.68;;
67302;Laerm;57659;51.436;5.978;2024-02-28T00:42:39;31.73;28.29;39.11;;
67302;Laerm;57659;51.436;5.978;2024-02-28T00:42:50;32.19;28.54;40.33;;
67302;Laerm;57659;51.436;5.978;2024-02-28T00:43:00;32.29;28.47;40.46;;
67302;Laerm;57659;51.436;5.978;2024-02-28T00:43:11;32.46;28.63;40.54;;
67302;Laerm;57659;51.436;5.978;2024-02-28T00:43:21;31.89;28.44;39.88;;
67302;Laerm;57659;51.436;5.978;2024-02-28T00:43:32;32.34;28.58;40.51;;
67302;Laerm;57659;51.436;5.978;2024-02-28T00:43:42;32.61;28.51;40.66;;
67302;Laerm;57659;51.436;5.978;2024-02-28T00:43:52;32.63;28.61;41.16;;
67302;Laerm;57659;51.436;5.978;2024-02-28T00:44:03;32.25;28.41;40.57;;
67302;Laerm;57659;51.436;5.978;2024-02-28T00:44:13;32.41;28.64;40.95;;
67302;Laerm;57659;51.436;5.978;2024-02-28T00:44:23;32.59;28.46;40.92;;
67302;Laerm;57659;51.436;5.978;2024-02-28T00:44:34;32.45;28.48;41.18;;
67302;Laerm;57659;51.436;5.978;2024-02-28T00:44:44;32.32;28.55;39.97;;
67302;Laerm;57659;51.436;5.978;2024-02-28T00:44:54;32.00;28.55;40.78;;
67302;Laerm;57659;51.436;5.978;2024-02-28T00:45:05;32.33;28.58;40.92;;
67302;Laerm;57659;51.436;5.978;2024-02-28T00:45:15;32.53;28.53;41.45;;
67302;Laerm;57659;51.436;5.978;2024-02-28T00:45:26;32.31;28.56;40.64;;
67302;Laerm;57659;51.436;5.978;2024-02-28T00:45:36;32.36;28.36;41.38;;
67302;Laerm;57659;51.436;5.978;2024-02-28T00:45:47;32.51;28.50;41.79;;
67302;Laerm;57659;51.436;5.978;2024-02-28T00:45:57;32.32;28.40;41.70;;
67302;Laerm;57659;51.436;5.978;2024-02-28T00:46:08;32.14;28.19;40.53;;
67302;Laerm;57659;51.436;5.978;2024-02-28T00:46:22;32.31;28.54;41.22;;
67302;Laerm;57659;51.436;5.978;2024-02-28T00:46:32;32.43;28.38;40.97;;
67302;Laerm;57659;51.436;5.978;2024-02-28T00:46:42;32.29;28.67;39.98;;
67302;Laerm;57659;51.436;5.978;2024-02-28T00:46:52;32.34;28.50;41.82;;
67302;Laerm;57659;51.436;5.978;2024-02-28T00:47:03;32.47;28.65;40.93;;
67302;Laerm;57659;51.436;5.978;2024-02-28T00:47:13;42.58;28.92;52.54;;
67302;Laerm;57659;51.436;5.978;2024-02-28T00:47:23;45.89;40.22;51.20;;
67302;Laerm;57659;51.436;5.978;2024-02-28T00:47:34;43.38;31.66;48.92;;
67302;Laerm;57659;51.436;5.978;2024-02-28T00:47:44;32.65;28.77;39.76;;
67302;Laerm;57659;51.436;5.978;2024-02-28T00:47:54;32.32;28.76;40.51;;
67302;Laerm;57659;51.436;5.978;2024-02-28T00:48:05;32.06;28.18;39.71;;
67302;Laerm;57659;51.436;5.978;2024-02-28T00:48:15;32.17;28.81;39.97;;
67302;Laerm;57659;51.436;5.978;2024-02-28T00:48:26;32.18;28.43;39.91;;
67302;Laerm;57659;51.436;5.978;2024-02-28T00:48:37;31.92;28.48;39.94;;
67302;Laerm;57659;51.436;5.978;2024-02-28T00:48:47;31.69;28.53;39.26;;
67302;Laerm;57659;51.436;5.978;2024-02-28T00:48:57;32.17;28.45;40.67;;
67302;Laerm;57659;51.436;5.978;2024-02-28T00:49:07;32.25;28.66;41.18;;
67302;Laerm;57659;51.436;5.978;2024-02-28T00:49:18;32.52;28.38;40.80;;
67302;Laerm;57659;51.436;5.978;2024-02-28T00:49:28;32.07;28.54;40.44;;
67302;Laerm;57659;51.436;5.978;2024-02-28T00:49:38;32.29;28.45;40.88;;
67302;Laerm;57659;51.436;5.978;2024-02-28T00:49:49;32.58;28.46;41.26;;
67302;Laerm;57659;51.436;5.978;2024-02-28T00:49:59;32.57;28.19;41.26;;
67302;Laerm;57659;51.436;5.978;2024-02-28T00:50:09;32.31;28.46;40.95;;
67302;Laerm;57659;51.436;5.978;2024-02-28T00:50:21;32.27;28.48;41.02;;
67302;Laerm;57659;51.436;5.978;2024-02-28T00:50:31;32.42;28.46;40.96;;
67302;Laerm;57659;51.436;5.978;2024-02-28T00:50:41;32.40;28.45;41.25;;
67302;Laerm;57659;51.436;5.978;2024-02-28T00:50:52;32.11;28.48;40.35;;
67302;Laerm;57659;51.436;5.978;2024-02-28T00:51:03;31.70;28.36;40.14;;
67302;Laerm;57659;51.436;5.978;2024-02-28T00:51:13;32.00;28.26;40.16;;
67302;Laerm;57659;51.436;5.978;2024-02-28T00:51:23;32.29;28.40;40.54;;
67302;Laerm;57659;51.436;5.978;2024-02-28T00:51:34;32.03;28.34;40.93;;
67302;Laerm;57659;51.436;5.978;2024-02-28T00:51:46;32.06;28.50;41.31;;
67302;Laerm;57659;51.436;5.978;2024-02-28T00:51:57;32.21;28.57;40.22;;
67302;Laerm;57659;51.436;5.978;2024-02-28T00:52:07;32.18;28.51;40.36;;
67302;Laerm;57659;51.436;5.978;2024-02-28T00:52:17;31.75;28.26;38.85;;
67302;Laerm;57659;51.436;5.978;2024-02-28T00:52:27;31.97;28.46;39.69;;
67302;Laerm;57659;51.436;5.978;2024-02-28T00:52:38;32.06;28.60;40.73;;
67302;Laerm;57659;51.436;5.978;2024-02-28T00:52:48;32.29;28.46;40.87;;
67302;Laerm;57659;51.436;5.978;2024-02-28T00:52:58;32.01;28.62;39.83;;
67302;Laerm;57659;51.436;5.978;2024-02-28T00:53:09;32.36;28.53;40.61;;
67302;Laerm;57659;51.436;5.978;2024-02-28T00:53:22;32.34;28.44;42.41;;
67302;Laerm;57659;51.436;5.978;2024-02-28T00:53:32;31.64;28.60;39.93;;
67302;Laerm;57659;51.436;5.978;2024-02-28T00:53:42;31.77;28.70;39.37;;
67302;Laerm;57659;51.436;5.978;2024-02-28T00:53:53;31.90;28.68;39.79;;
67302;Laerm;57659;51.436;5.978;2024-02-28T00:54:03;31.99;28.67;39.80;;
67302;Laerm;57659;51.436;5.978;2024-02-28T00:54:14;31.50;28.50;39.81;;
67302;Laerm;57659;51.436;5.978;2024-02-28T00:54:24;31.61;28.56;39.31;;
67302;Laerm;57659;51.436;5.978;2024-02-28T00:54:36;31.50;28.61;38.93;;
67302;Laerm;57659;51.436;5.978;2024-02-28T00:54:46;31.42;28.30;38.70;;
67302;Laerm;57659;51.436;5.978;2024-02-28T00:54:56;31.08;28.40;37.99;;
67302;Laerm;57659;51.436;5.978;2024-02-28T00:55:06;31.55;28.74;39.67;;
67302;Laerm;57659;51.436;5.978;2024-02-28T00:55:17;31.78;28.52;39.71;;
67302;Laerm;57659;51.436;5.978;2024-02-28T00:55:28;31.84;28.72;39.87;;
67302;Laerm;57659;51.436;5.978;2024-02-28T00:55:39;31.37;28.40;38.98;;
67302;Laerm;57659;51.436;5.978;2024-02-28T00:55:49;31.75;28.54;40.14;;
67302;Laerm;57659;51.436;5.978;2024-02-28T00:56:02;32.00;28.58;40.11;;
67302;Laerm;57659;51.436;5.978;2024-02-28T00:56:12;32.04;28.58;39.02;;
67302;Laerm;57659;51.436;5.978;2024-02-28T00:56:22;31.52;28.44;38.90;;
67302;Laerm;57659;51.436;5.978;2024-02-28T00:56:34;33.12;28.29;43.27;;
67302;Laerm;57659;51.436;5.978;2024-02-28T00:56:44;31.98;28.35;39.03;;
67302;Laerm;57659;51.436;5.978;2024-02-28T00:56:55;31.85;28.46;39.08;;
67302;Laerm;57659;51.436;5.978;2024-02-28T00:57:05;31.35;28.48;38.00;;
67302;Laerm;57659;51.436;5.978;2024-02-28T00:57:15;31.50;28.57;38.48;;
67302;Laerm;57659;51.436;5.978;2024-02-28T00:57:26;31.75;28.44;39.35;;
67302;Laerm;57659;51.436;5.978;2024-02-28T00:57:36;31.80;28.54;39.33;;
67302;Laerm;57659;51.436;5.978;2024-02-28T00:57:46;31.56;28.63;39.02;;
67302;Laerm;57659;51.436;5.978;2024-02-28T00:57:56;31.81;28.59;39.59;;
67302;Laerm;57659;51.436;5.978;2024-02-28T00:58:07;31.92;28.38;40.08;;
67302;Laerm;57659;51.436;5.978;2024-02-28T00:58:17;31.79;28.53;39.96;;
67302;Laerm;57659;51.436;5.978;2024-02-28T00:58:27;31.39;28.67;38.95;;
67302;Laerm;57659;51.436;5.978;2024-02-28T00:58:39;31.69;28.54;40.06;;
67302;Laerm;57659;51.436;5.978;2024-02-28T00:58:50;31.94;28.58;40.05;;
67302;Laerm;57659;51.436;5.978;2024-02-28T00:59:00;31.70;28.46;40.07;;
67302;Laerm;57659;51.436;5.978;2024-02-28T00:59:10;31.69;28.40;39.55;;